Airfield :
LOGIN :

Register | Disclaimer

   EN    FR    IT 

 










Legend :    VFR   Marginal VFR   IFR   Intensive IFR   Very Intensive IFR
Visi :
Ceiling :
>= 8 km
>= 3000ft
5 to 8 km
1000 to 3000 ft
1500m to 5 km
500 to 1000 ft
800 to 1500m
200 to 500 ft
< 800m
< 200 ft
Symbols :   Thunderstorms  Fog  Heavy snow  Heavy precipitations  Wind > 20 kt
SIGMETs :     Misc.  Thunderstorms  Icing  Turbulence  Mountain Waves  Volcanic Ashes







- Airport Elevation : 38 ft
- IATA code : BOH
- Download approach charts


EGHH - Bournemouth

CURRENT METAR :
  • 201450Z 23006KT 9999 FEW035 SCT045 17/12 Q1024

EXPIRED METARs :
  • 201420Z 24009KT 9999 FEW033 SCT045 17/12 Q1024
  • 201350Z 24011KT 9999 -RA FEW027 SCT042 16/13 Q1024
  • 201320Z 22009KT 9999 FEW037 SCT042 18/12 Q1024
  • 201250Z 23010KT 9999 SCT033 18/10 Q1024
  • 201220Z 25009KT 9999 SCT033 19/12 Q1024

TAF TAF EGHH
Valid from the 20 at 15:00 until the 21 at 00:00 UTC


201400Z 2015/2024 23010KT 9999 SCT045
TEMPO 2015/2024 7000 RA BKN010
PROB30
TEMPO 2017/2021 4000 RADZ BKN006
PROB30
TEMPO 2021/2024 BKN004
ATIS : +44 1202 364 151
Met : +44 1202 364 158 (TAF)
No reported NOTAMs for that airfield.



MET'MAP, your aeronautical weather chart ! - Copyright ORBIFLY December 2007 - Disclaimer

ORBIFLY MET'MAP TEAM :

Programming & Development : Alexandra Zaïnal
Concept & Development : Baudouin d'Aumeries
Co-Development & Prog : Marc-Olivier Méhu
Technical & hardware support : Manuel Goepfert

Contact : metmap@orbifly.com




SOURCES & CREDITS :

   NOAA